sensor_id;sensor_type;location;lat;lon;timestamp;pressure;altitude;pressure_sealevel;temperature;humidity
75646;BME280;64237;52.438;13.240;2022-12-18T11:05:40;103007.00;;;-3.28;88.56
75646;BME280;64237;52.438;13.240;2022-12-18T11:08:20;103014.03;;;-3.68;83.06
75646;BME280;64237;52.438;13.240;2022-12-18T11:10:47;103008.69;;;-3.84;83.31
75646;BME280;64237;52.438;13.240;2022-12-18T11:13:18;103009.00;;;-3.74;83.32
75646;BME280;64237;52.438;13.240;2022-12-18T11:15:46;103008.13;;;-3.75;83.02
75646;BME280;64237;52.438;13.240;2022-12-18T11:18:27;103011.09;;;-3.94;83.61
75646;BME280;64237;52.438;13.240;2022-12-18T11:21:10;103012.66;;;-3.75;83.36
75646;BME280;64237;52.438;13.240;2022-12-18T11:23:43;103007.63;;;-3.82;84.26
75646;BME280;64237;52.438;13.240;2022-12-18T11:26:11;103009.78;;;-3.58;83.90
75646;BME280;64237;52.438;13.240;2022-12-18T11:28:39;103010.38;;;-3.53;83.43
75646;BME280;64237;52.438;13.240;2022-12-18T11:31:26;103004.69;;;-3.49;83.91
75646;BME280;64237;52.438;13.240;2022-12-18T11:36:45;103001.16;;;-3.65;83.94
75646;BME280;64237;52.438;13.240;2022-12-18T11:39:21;102999.28;;;-3.49;83.74
75646;BME280;64237;52.438;13.240;2022-12-18T11:41:56;102996.75;;;-3.37;83.68
75646;BME280;64237;52.438;13.240;2022-12-18T11:44:49;103011.59;;;-3.45;83.49
75646;BME280;64237;52.438;13.240;2022-12-18T11:49:51;103028.81;;;-3.31;83.50
75646;BME280;64237;52.438;13.240;2022-12-18T11:52:24;103019.13;;;-3.21;83.56
75646;BME280;64237;52.438;13.240;2022-12-18T11:54:52;103022.63;;;-3.19;83.05
75646;BME280;64237;52.438;13.240;2022-12-18T11:58:24;103027.66;;;-3.13;83.06
75646;BME280;64237;52.438;13.240;2022-12-18T12:00:22;103040.22;;;-3.40;83.62
75646;BME280;64237;52.438;13.240;2022-12-18T12:09:16;103027.34;;;-3.23;83.21
75646;BME280;64237;52.438;13.240;2022-12-18T12:14:54;103027.06;;;-3.04;82.97
75646;BME280;64237;52.438;13.240;2022-12-18T12:17:37;103026.75;;;-2.99;82.68
75646;BME280;64237;52.438;13.240;2022-12-18T12:20:20;103034.63;;;-3.09;83.51
75646;BME280;64237;52.438;13.240;2022-12-18T12:25:49;103044.25;;;-1.07;78.94
75646;BME280;64237;52.438;13.240;2022-12-18T12:34:25;103043.00;;;-2.58;81.49
75646;BME280;64237;52.438;13.240;2022-12-18T12:47:00;103016.47;;;-2.80;82.03
75646;BME280;64237;52.438;13.240;2022-12-18T12:49:32;103015.88;;;-2.71;82.01
75646;BME280;64237;52.438;13.240;2022-12-18T12:52:04;103019.16;;;-2.80;81.50
75646;BME280;64237;52.438;13.240;2022-12-18T12:54:31;103006.84;;;-2.98;82.33
75646;BME280;64237;52.438;13.240;2022-12-18T12:57:02;103001.63;;;-2.87;82.87
75646;BME280;64237;52.438;13.240;2022-12-18T13:02:25;102991.22;;;-2.81;82.76
75646;BME280;64237;52.438;13.240;2022-12-18T13:07:41;102995.91;;;-2.83;82.42
75646;BME280;64237;52.438;13.240;2022-12-18T13:15:32;102978.47;;;-2.79;81.85
75646;BME280;64237;52.438;13.240;2022-12-18T13:20:50;103001.06;;;-2.65;81.72
75646;BME280;64237;52.438;13.240;2022-12-18T13:23:27;102990.22;;;-2.65;81.87
75646;BME280;64237;52.438;13.240;2022-12-18T13:34:26;102980.88;;;-2.74;82.38
75646;BME280;64237;52.438;13.240;2022-12-18T13:36:54;102976.38;;;-2.61;82.44
75646;BME280;64237;52.438;13.240;2022-12-18T13:41:50;102989.19;;;-2.50;82.34
75646;BME280;64237;52.438;13.240;2022-12-18T13:46:52;102977.53;;;-2.92;82.94
75646;BME280;64237;52.438;13.240;2022-12-18T13:49:28;102976.38;;;-2.88;83.05
75646;BME280;64237;52.438;13.240;2022-12-18T13:51:56;102971.53;;;-2.97;83.60
75646;BME280;64237;52.438;13.240;2022-12-18T13:54:39;102976.81;;;-3.08;82.15
75646;BME280;64237;52.438;13.240;2022-12-18T13:57:28;102983.41;;;-3.26;83.19
75646;BME280;64237;52.438;13.240;2022-12-18T13:59:54;102972.16;;;-3.20;82.78
75646;BME280;64237;52.438;13.240;2022-12-18T14:02:22;102956.53;;;-3.29;83.58
75646;BME280;64237;52.438;13.240;2022-12-18T14:04:49;102960.22;;;-3.30;82.54
75646;BME280;64237;52.438;13.240;2022-12-18T14:07:21;102963.50;;;-3.25;83.06
75646;BME280;64237;52.438;13.240;2022-12-18T14:09:58;102958.47;;;-3.31;82.45
75646;BME280;64237;52.438;13.240;2022-12-18T14:12:29;102954.19;;;1.06;93.89
75646;BME280;64237;52.438;13.240;2022-12-18T14:15:23;102956.44;;;-1.44;82.72
75646;BME280;64237;52.438;13.240;2022-12-18T14:17:55;102959.88;;;-2.31;81.07
75646;BME280;64237;52.438;13.240;2022-12-18T14:20:23;102956.25;;;-2.84;81.52
75646;BME280;64237;52.438;13.240;2022-12-18T14:22:49;102944.78;;;-3.01;82.75
75646;BME280;64237;52.438;13.240;2022-12-18T14:25:19;102938.97;;;-2.95;82.10
75646;BME280;64237;52.438;13.240;2022-12-18T14:27:48;102935.63;;;-3.13;82.07
75646;BME280;64237;52.438;13.240;2022-12-18T14:38:32;102920.78;;;-3.34;82.94
75646;BME280;64237;52.438;13.240;2022-12-18T14:41:00;102919.44;;;-3.41;83.61
75646;BME280;64237;52.438;13.240;2022-12-18T14:43:27;102923.13;;;-3.28;83.21
75646;BME280;64237;52.438;13.240;2022-12-18T14:45:53;102930.25;;;-3.41;82.44
75646;BME280;64237;52.438;13.240;2022-12-18T14:51:05;102929.50;;;-3.43;82.32
75646;BME280;64237;52.438;13.240;2022-12-18T14:54:00;102926.22;;;-3.34;82.25
75646;BME280;64237;52.438;13.240;2022-12-18T14:56:34;102933.56;;;-3.51;82.77
75646;BME280;64237;52.438;13.240;2022-12-18T15:01:45;102947.56;;;-3.30;82.76
75646;BME280;64237;52.438;13.240;2022-12-18T15:04:32;102944.84;;;-3.30;83.27
75646;BME280;64237;52.438;13.240;2022-12-18T15:07:19;102938.75;;;-3.33;82.75
75646;BME280;64237;52.438;13.240;2022-12-18T19:02:20;102772.41;;;-4.23;83.25
75646;BME280;64237;52.438;13.240;2022-12-18T19:04:45;102767.97;;;-4.38;82.31
75646;BME280;64237;52.438;13.240;2022-12-18T19:07:11;102765.66;;;-4.44;81.80
75646;BME280;64237;52.438;13.240;2022-12-18T19:09:36;102758.22;;;-4.40;81.82
75646;BME280;64237;52.438;13.240;2022-12-18T19:12:02;102760.84;;;-4.39;81.51
75646;BME280;64237;52.438;13.240;2022-12-18T19:14:46;102752.91;;;-4.42;82.09
75646;BME280;64237;52.438;13.240;2022-12-18T19:17:12;102747.13;;;-4.50;82.07
75646;BME280;64237;52.438;13.240;2022-12-18T19:19:38;102754.38;;;-4.65;82.29
75646;BME280;64237;52.438;13.240;2022-12-18T19:22:03;102756.59;;;-4.43;82.31
75646;BME280;64237;52.438;13.240;2022-12-18T19:24:29;102750.41;;;-4.31;81.27
75646;BME280;64237;52.438;13.240;2022-12-18T19:26:54;102753.28;;;-4.20;81.65
75646;BME280;64237;52.438;13.240;2022-12-18T19:29:20;102762.28;;;-4.33;81.76
75646;BME280;64237;52.438;13.240;2022-12-18T19:31:45;102754.06;;;-4.32;81.29
75646;BME280;64237;52.438;13.240;2022-12-18T19:34:10;102749.63;;;-4.47;82.29
75646;BME280;64237;52.438;13.240;2022-12-18T19:36:37;102742.69;;;-4.65;81.53
75646;BME280;64237;52.438;13.240;2022-12-18T19:39:09;102733.16;;;-4.57;82.01
75646;BME280;64237;52.438;13.240;2022-12-18T19:41:35;102732.94;;;-4.54;82.14
75646;BME280;64237;52.438;13.240;2022-12-18T19:44:01;102746.94;;;-4.61;81.63
75646;BME280;64237;52.438;13.240;2022-12-18T19:46:26;102752.34;;;-4.61;81.71
75646;BME280;64237;52.438;13.240;2022-12-18T19:48:52;102759.69;;;-4.35;81.99
75646;BME280;64237;52.438;13.240;2022-12-18T19:51:20;102756.59;;;-4.43;81.05
75646;BME280;64237;52.438;13.240;2022-12-18T19:53:46;102743.84;;;-4.41;81.94
75646;BME280;64237;52.438;13.240;2022-12-18T19:56:15;102741.16;;;-4.41;81.53
75646;BME280;64237;52.438;13.240;2022-12-18T19:58:41;102746.75;;;-4.44;81.52
75646;BME280;64237;52.438;13.240;2022-12-18T20:01:06;102749.06;;;-4.38;81.16
75646;BME280;64237;52.438;13.240;2022-12-18T20:03:32;102752.53;;;-4.22;80.56
75646;BME280;64237;52.438;13.240;2022-12-18T20:06:09;102750.00;;;-4.53;81.10
75646;BME280;64237;52.438;13.240;2022-12-18T20:08:35;102737.84;;;-4.32;80.34
75646;BME280;64237;52.438;13.240;2022-12-18T20:11:01;102738.25;;;-4.24;79.80
75646;BME280;64237;52.438;13.240;2022-12-18T20:13:26;102725.91;;;-4.42;81.21
75646;BME280;64237;52.438;13.240;2022-12-18T20:15:52;102733.16;;;-4.42;81.46
75646;BME280;64237;52.438;13.240;2022-12-18T20:18:17;102732.59;;;-4.33;80.71
75646;BME280;64237;52.438;13.240;2022-12-18T20:20:42;102729.88;;;-4.33;81.67
75646;BME280;64237;52.438;13.240;2022-12-18T20:23:08;102730.16;;;-4.52;80.90
75646;BME280;64237;52.438;13.240;2022-12-18T20:25:33;102716.47;;;-4.35;81.30
75646;BME280;64237;52.438;13.240;2022-12-18T20:27:59;102703.47;;;-4.57;80.93
75646;BME280;64237;52.438;13.240;2022-12-18T20:30:24;102695.81;;;-4.50;81.31
75646;BME280;64237;52.438;13.240;2022-12-18T20:32:49;102697.75;;;-4.52;81.22
75646;BME280;64237;52.438;13.240;2022-12-18T20:35:15;102682.81;;;-4.58;81.63
75646;BME280;64237;52.438;13.240;2022-12-18T20:37:40;102675.66;;;-4.44;80.91
75646;BME280;64237;52.438;13.240;2022-12-18T20:40:06;102674.41;;;-4.53;81.29
75646;BME280;64237;52.438;13.240;2022-12-18T20:42:31;102682.31;;;-4.36;81.50
75646;BME280;64237;52.438;13.240;2022-12-18T20:44:57;102685.78;;;-4.48;80.77
75646;BME280;64237;52.438;13.240;2022-12-18T20:47:22;102699.09;;;-4.45;81.03
75646;BME280;64237;52.438;13.240;2022-12-18T20:49:47;102706.81;;;-4.53;81.12
75646;BME280;64237;52.438;13.240;2022-12-18T20:52:13;102701.72;;;-4.43;81.64
75646;BME280;64237;52.438;13.240;2022-12-18T20:54:38;102691.09;;;-4.46;81.53
75646;BME280;64237;52.438;13.240;2022-12-18T20:57:03;102698.31;;;-4.47;81.00
75646;BME280;64237;52.438;13.240;2022-12-18T20:59:29;102713.44;;;-4.30;81.00
75646;BME280;64237;52.438;13.240;2022-12-18T21:01:54;102689.66;;;-4.38;80.98
75646;BME280;64237;52.438;13.240;2022-12-18T21:04:20;102677.06;;;-4.25;81.61
75646;BME280;64237;52.438;13.240;2022-12-18T21:06:47;102678.91;;;-4.25;80.16
75646;BME280;64237;52.438;13.240;2022-12-18T21:09:13;102663.75;;;-4.28;80.49
75646;BME280;64237;52.438;13.240;2022-12-18T21:11:38;102671.91;;;-4.42;80.48
75646;BME280;64237;52.438;13.240;2022-12-18T21:14:24;102669.78;;;-4.37;79.63
75646;BME280;64237;52.438;13.240;2022-12-18T21:16:50;102668.25;;;-4.41;80.43
75646;BME280;64237;52.438;13.240;2022-12-18T21:19:19;102660.75;;;-4.64;80.94
75646;BME280;64237;52.438;13.240;2022-12-18T21:21:45;102665.75;;;-4.58;81.50
75646;BME280;64237;52.438;13.240;2022-12-18T21:24:11;102659.56;;;-4.46;81.62
75646;BME280;64237;52.438;13.240;2022-12-18T21:26:37;102658.69;;;-4.46;80.60
75646;BME280;64237;52.438;13.240;2022-12-18T21:29:06;102677.13;;;-4.39;81.07
75646;BME280;64237;52.438;13.240;2022-12-18T21:31:34;102674.59;;;-4.42;81.18
75646;BME280;64237;52.438;13.240;2022-12-18T21:34:00;102680.16;;;-4.31;80.43
75646;BME280;64237;52.438;13.240;2022-12-18T21:36:25;102682.31;;;-4.36;79.99
75646;BME280;64237;52.438;13.240;2022-12-18T21:38:52;102677.31;;;-4.42;80.67
75646;BME280;64237;52.438;13.240;2022-12-18T21:41:21;102674.56;;;-4.28;80.77
75646;BME280;64237;52.438;13.240;2022-12-18T21:44:05;102677.69;;;-4.48;79.99
75646;BME280;64237;52.438;13.240;2022-12-18T21:46:34;102671.34;;;-4.61;81.17
75646;BME280;64237;52.438;13.240;2022-12-18T21:49:00;102674.31;;;-4.37;80.85
75646;BME280;64237;52.438;13.240;2022-12-18T21:51:25;102675.56;;;-4.43;80.69
75646;BME280;64237;52.438;13.240;2022-12-18T21:53:50;102672.78;;;-4.41;80.05
75646;BME280;64237;52.438;13.240;2022-12-18T21:56:16;102679.03;;;-4.41;80.03
75646;BME280;64237;52.438;13.240;2022-12-18T21:58:41;102676.69;;;-4.33;80.08
75646;BME280;64237;52.438;13.240;2022-12-18T22:01:07;102679.53;;;-4.34;80.11
75646;BME280;64237;52.438;13.240;2022-12-18T22:03:32;102672.66;;;-4.54;80.42
75646;BME280;64237;52.438;13.240;2022-12-18T22:05:58;102666.13;;;-4.50;80.68
75646;BME280;64237;52.438;13.240;2022-12-18T22:08:24;102666.31;;;-4.39;79.79
75646;BME280;64237;52.438;13.240;2022-12-18T22:10:50;102644.28;;;-4.33;79.72
75646;BME280;64237;52.438;13.240;2022-12-18T22:13:16;102649.69;;;-4.33;80.31
75646;BME280;64237;52.438;13.240;2022-12-18T22:15:41;102649.38;;;-4.55;79.97
75646;BME280;64237;52.438;13.240;2022-12-18T22:18:07;102648.19;;;-4.37;79.86
75646;BME280;64237;52.438;13.240;2022-12-18T22:20:32;102642.34;;;-4.31;80.94
75646;BME280;64237;52.438;13.240;2022-12-18T22:22:58;102623.44;;;-4.31;80.29
75646;BME280;64237;52.438;13.240;2022-12-18T22:25:24;102620.97;;;-4.48;80.29
75646;BME280;64237;52.438;13.240;2022-12-18T22:27:49;102632.56;;;-4.46;79.41
75646;BME280;64237;52.438;13.240;2022-12-18T22:30:33;102632.88;;;-4.24;79.34
75646;BME280;64237;52.438;13.240;2022-12-18T22:32:58;102627.09;;;-4.18;79.07
75646;BME280;64237;52.438;13.240;2022-12-18T22:35:24;102608.69;;;-4.25;79.23
75646;BME280;64237;52.438;13.240;2022-12-18T22:37:49;102615.63;;;-4.21;79.42
75646;BME280;64237;52.438;13.240;2022-12-18T22:40:20;102606.31;;;-4.44;80.55
75646;BME280;64237;52.438;13.240;2022-12-18T22:42:47;102607.66;;;-4.37;80.32
75646;BME280;64237;52.438;13.240;2022-12-18T22:45:12;102601.31;;;-4.36;79.75
75646;BME280;64237;52.438;13.240;2022-12-18T22:47:38;102610.75;;;-4.43;80.30
75646;BME280;64237;52.438;13.240;2022-12-18T22:50:04;102600.88;;;-4.30;79.78
75646;BME280;64237;52.438;13.240;2022-12-18T22:52:30;102590.06;;;-4.30;79.16
75646;BME280;64237;52.438;13.240;2022-12-18T22:54:55;102583.91;;;-4.32;79.09
75646;BME280;64237;52.438;13.240;2022-12-18T22:57:21;102585.38;;;-4.40;79.49
75646;BME280;64237;52.438;13.240;2022-12-18T22:59:48;102578.25;;;-4.41;79.83
75646;BME280;64237;52.438;13.240;2022-12-18T23:02:13;102561.00;;;-4.53;80.20
75646;BME280;64237;52.438;13.240;2022-12-18T23:04:39;102556.22;;;-4.62;80.53
75646;BME280;64237;52.438;13.240;2022-12-18T23:07:04;102559.94;;;-4.51;80.09
75646;BME280;64237;52.438;13.240;2022-12-18T23:09:30;102555.97;;;-4.45;79.76
75646;BME280;64237;52.438;13.240;2022-12-18T23:11:55;102544.97;;;-4.42;79.94
75646;BME280;64237;52.438;13.240;2022-12-18T23:14:21;102535.34;;;-4.46;80.01
75646;BME280;64237;52.438;13.240;2022-12-18T23:16:46;102543.25;;;-4.43;79.55
75646;BME280;64237;52.438;13.240;2022-12-18T23:19:13;102536.50;;;-4.50;79.70
75646;BME280;64237;52.438;13.240;2022-12-18T23:21:38;102529.88;;;-4.32;79.70
75646;BME280;64237;52.438;13.240;2022-12-18T23:24:04;102533.22;;;-4.41;79.39
75646;BME280;64237;52.438;13.240;2022-12-18T23:26:30;102530.22;;;-4.36;80.17
75646;BME280;64237;52.438;13.240;2022-12-18T23:28:55;102534.88;;;-4.53;79.61
75646;BME280;64237;52.438;13.240;2022-12-18T23:31:29;102520.03;;;-4.33;79.76
75646;BME280;64237;52.438;13.240;2022-12-18T23:33:56;102519.25;;;-4.47;79.93
75646;BME280;64237;52.438;13.240;2022-12-18T23:36:23;102523.97;;;-4.51;79.79
75646;BME280;64237;52.438;13.240;2022-12-18T23:38:50;102524.81;;;-4.36;79.87
75646;BME280;64237;52.438;13.240;2022-12-18T23:41:19;102515.38;;;-4.43;79.58
75646;BME280;64237;52.438;13.240;2022-12-18T23:43:45;102510.25;;;-4.34;79.69
75646;BME280;64237;52.438;13.240;2022-12-18T23:46:25;102496.28;;;-4.28;79.29
75646;BME280;64237;52.438;13.240;2022-12-18T23:48:51;102489.06;;;-4.54;79.61
75646;BME280;64237;52.438;13.240;2022-12-18T23:51:18;102475.34;;;-4.37;80.25
75646;BME280;64237;52.438;13.240;2022-12-18T23:53:45;102455.50;;;-4.50;79.81
75646;BME280;64237;52.438;13.240;2022-12-18T23:56:11;102465.28;;;-4.35;79.49
75646;BME280;64237;52.438;13.240;2022-12-18T23:58:38;102465.81;;;-4.42;79.14
